createdAt,value
2022-07-25T00:02:01.329Z,61.33
2022-07-25T00:05:05.933Z,61.66
2022-07-25T00:08:08.476Z,61.55
2022-07-25T00:11:11.294Z,62.01
2022-07-25T00:14:13.869Z,62.07
2022-07-25T00:17:16.799Z,62.03
2022-07-25T00:20:19.393Z,62.11
2022-07-25T00:23:22.144Z,61.66
2022-07-25T00:26:24.669Z,61.65
2022-07-25T00:29:27.471Z,61.52
2022-07-25T00:32:38.847Z,61.80
2022-07-25T00:35:41.712Z,62.65
2022-07-25T00:38:44.610Z,63.07
2022-07-25T00:41:47.514Z,64.47
2022-07-25T00:44:50.900Z,63.89
2022-07-25T00:47:54.032Z,64.22
2022-07-25T00:50:57.249Z,65.17
2022-07-25T00:54:00.520Z,65.67
2022-07-25T00:57:03.520Z,66.44
2022-07-25T01:00:13.086Z,65.61
2022-07-25T01:03:16.233Z,64.32
2022-07-25T01:06:19.934Z,64.30
2022-07-25T01:09:27.677Z,63.85
2022-07-25T01:12:30.572Z,63.70
2022-07-25T01:15:33.217Z,63.45
2022-07-25T01:18:37.121Z,63.62
2022-07-25T01:21:41.031Z,64.87
2022-07-25T01:24:43.851Z,65.19
2022-07-25T01:27:52.703Z,65.99
2022-07-25T01:30:57.591Z,65.68
2022-07-25T01:34:00.139Z,65.61
2022-07-25T01:37:03.094Z,65.35
2022-07-25T01:40:06.956Z,65.17
2022-07-25T01:43:10.893Z,64.99
2022-07-25T01:46:13.480Z,65.50
2022-07-25T01:49:16.447Z,65.41
2022-07-25T01:52:19.276Z,65.89
2022-07-25T01:55:22.099Z,65.78
2022-07-25T01:58:24.703Z,66.39
2022-07-25T02:01:28.405Z,66.38
2022-07-25T02:04:31.308Z,65.99
2022-07-25T02:07:34.168Z,66.10
2022-07-25T02:10:36.992Z,65.86
2022-07-25T02:13:39.886Z,65.98
2022-07-25T02:16:42.777Z,65.72
2022-07-25T02:19:45.314Z,65.28
2022-07-25T02:22:48.139Z,64.40
2022-07-25T02:25:50.665Z,63.83
2022-07-25T02:28:53.495Z,63.32
2022-07-25T02:31:56.134Z,62.49
2022-07-25T02:34:58.924Z,61.78
2022-07-25T02:38:01.534Z,61.32
2022-07-25T02:41:04.950Z,60.93
2022-07-25T02:44:07.838Z,60.94
2022-07-25T02:47:10.852Z,60.66
2022-07-25T02:50:14.740Z,60.40
2022-07-25T02:53:28.926Z,60.36
2022-07-25T02:56:40.567Z,60.43
2022-07-25T02:59:43.372Z,60.60
2022-07-25T03:02:46.294Z,60.48
2022-07-25T03:05:49.159Z,60.47
2022-07-25T03:08:51.833Z,60.27
2022-07-25T03:11:55.346Z,60.20
2022-07-25T03:14:57.840Z,60.23
2022-07-25T03:18:00.635Z,60.05
2022-07-25T03:21:03.204Z,59.83
2022-07-25T03:24:06.653Z,59.70
2022-07-25T03:27:16.511Z,59.71
2022-07-25T03:30:19.639Z,59.60
2022-07-25T03:33:22.611Z,59.56
2022-07-25T03:36:25.573Z,59.62
2022-07-25T03:39:28.473Z,59.59
2022-07-25T03:42:35.360Z,59.54
2022-07-25T03:45:38.189Z,59.40
2022-07-25T03:48:41.071Z,59.13
2022-07-25T03:51:43.722Z,58.85
2022-07-25T03:54:46.542Z,58.50
2022-07-25T03:57:49.054Z,58.41
2022-07-25T04:00:51.928Z,58.14
2022-07-25T04:03:54.729Z,57.87
2022-07-25T04:06:57.256Z,57.61
2022-07-25T04:10:00.141Z,57.42
2022-07-25T04:13:02.725Z,57.18
2022-07-25T04:16:05.850Z,56.76
2022-07-25T04:19:08.633Z,56.54
2022-07-25T04:22:11.518Z,56.27
2022-07-25T04:25:14.274Z,55.68
2022-07-25T04:28:17.365Z,54.83
2022-07-25T04:31:19.976Z,53.67
2022-07-25T04:34:22.758Z,52.78
2022-07-25T04:37:25.286Z,52.62
2022-07-25T04:40:28.342Z,51.92
2022-07-25T04:43:30.892Z,51.53
2022-07-25T04:46:33.819Z,51.29
2022-07-25T04:49:36.389Z,50.92
2022-07-25T04:52:39.181Z,50.72
2022-07-25T04:55:41.696Z,51.32
2022-07-25T04:58:44.607Z,52.07
2022-07-25T05:01:47.193Z,52.46
2022-07-25T05:04:52.094Z,52.68
2022-07-25T05:07:58.988Z,52.72
2022-07-25T05:11:01.848Z,51.95
2022-07-25T05:14:04.699Z,51.58
2022-07-25T05:17:07.997Z,51.96
2022-07-25T05:20:11.343Z,52.26
2022-07-25T05:23:14.179Z,51.98
2022-07-25T05:26:16.824Z,51.66
2022-07-25T05:29:19.761Z,51.60
2022-07-25T05:32:22.493Z,50.82
2022-07-25T05:35:25.359Z,50.29
2022-07-25T05:38:27.884Z,49.81
2022-07-25T05:41:30.766Z,49.90
2022-07-25T05:44:33.540Z,50.05
2022-07-25T05:47:36.427Z,49.87
2022-07-25T05:50:38.957Z,49.96
2022-07-25T05:53:41.755Z,49.99
2022-07-25T05:56:44.277Z,50.02
2022-07-25T05:59:47.475Z,49.96
2022-07-25T06:02:50.177Z,49.83
2022-07-25T06:05:55.162Z,49.46
2022-07-25T06:08:57.654Z,48.93
2022-07-25T06:12:01.368Z,48.91
2022-07-25T06:15:06.100Z,48.40
2022-07-25T06:18:09.375Z,48.09
2022-07-25T06:21:12.004Z,47.30
2022-07-25T06:24:14.826Z,47.20
2022-07-25T06:27:20.675Z,46.87
2022-07-25T06:30:25.312Z,46.15
2022-07-25T06:33:27.887Z,45.72
2022-07-25T06:36:32.206Z,45.16
2022-07-25T06:39:35.522Z,44.80
2022-07-25T06:42:46.416Z,44.57
2022-07-25T06:45:49.922Z,45.01
2022-07-25T06:48:52.981Z,44.31
2022-07-25T06:51:55.666Z,44.18
2022-07-25T06:54:58.534Z,43.93
2022-07-25T06:58:01.050Z,44.12
2022-07-25T07:01:04.068Z,44.03
2022-07-25T07:04:07.166Z,43.49
2022-07-25T07:07:10.161Z,43.01
2022-07-25T07:10:12.672Z,43.36
2022-07-25T07:13:20.749Z,43.06
2022-07-25T07:16:26.716Z,43.06
2022-07-25T07:19:30.115Z,42.59
2022-07-25T07:22:32.660Z,42.06
2022-07-25T07:25:36.081Z,41.91
2022-07-25T07:28:39.688Z,40.93
2022-07-25T07:31:42.523Z,38.54
2022-07-25T07:34:45.148Z,36.54
2022-07-25T07:37:48.714Z,34.41
2022-07-25T07:40:51.192Z,32.79
2022-07-25T07:43:54.080Z,31.50
2022-07-25T07:46:56.740Z,30.86
2022-07-25T07:49:59.599Z,28.63
2022-07-25T07:53:02.423Z,29.06
2022-07-25T07:56:06.453Z,28.66
2022-07-25T07:59:09.420Z,26.83
2022-07-25T08:02:12.611Z,27.49
2022-07-25T08:05:23.961Z,26.50
2022-07-25T08:08:30.940Z,25.16
2022-07-25T08:11:34.285Z,25.54
2022-07-25T08:14:36.854Z,24.20
2022-07-25T08:17:39.965Z,24.41
2022-07-25T08:20:42.604Z,25.40
2022-07-25T08:23:47.254Z,23.55
2022-07-25T08:26:49.744Z,21.74
2022-07-25T08:29:53.231Z,23.35
2022-07-25T08:32:58.283Z,22.55
2022-07-25T08:36:01.221Z,22.33
2022-07-25T08:39:03.793Z,21.99
2022-07-25T08:42:10.942Z,22.72
2022-07-25T08:45:16.337Z,21.76
2022-07-25T08:48:24.475Z,20.67
2022-07-25T08:51:27.323Z,24.32
2022-07-25T08:54:31.577Z,21.25
2022-07-25T08:57:35.596Z,22.85
2022-07-25T09:00:39.218Z,20.21
2022-07-25T09:03:43.365Z,20.42
2022-07-25T09:06:50.704Z,19.32
2022-07-25T09:09:53.402Z,19.20
2022-07-25T09:13:04.370Z,21.27
2022-07-25T09:16:07.268Z,21.15
2022-07-25T09:19:17.267Z,19.93
2022-07-25T09:22:19.857Z,18.21
2022-07-25T09:25:28.451Z,18.63
2022-07-25T09:28:31.056Z,18.79
2022-07-25T09:31:35.483Z,19.53
2022-07-25T09:34:40.579Z,18.00
2022-07-25T09:37:43.556Z,20.48
2022-07-25T09:40:57.504Z,18.60
2022-07-25T09:44:00.512Z,18.00
2022-07-25T09:47:14.181Z,18.50
2022-07-25T09:50:18.183Z,16.66
2022-07-25T09:53:20.985Z,16.89
2022-07-25T09:56:23.916Z,17.31
2022-07-25T09:59:26.679Z,16.70
2022-07-25T10:02:38.228Z,17.11
2022-07-25T10:05:56.593Z,17.28
2022-07-25T10:08:59.406Z,16.85
2022-07-25T10:12:05.846Z,17.12
2022-07-25T10:15:11.885Z,20.15
2022-07-25T10:18:16.711Z,17.30
2022-07-25T10:21:26.756Z,16.52
2022-07-25T10:24:35.281Z,17.02
2022-07-25T10:27:43.722Z,17.30
2022-07-25T10:30:47.490Z,17.23
2022-07-25T10:34:14.350Z,17.00
2022-07-25T10:37:21.317Z,16.60
2022-07-25T10:40:33.772Z,16.11
2022-07-25T10:43:37.953Z,16.63
2022-07-25T10:46:41.134Z,16.59
2022-07-25T10:50:16.467Z,16.28
2022-07-25T10:53:12.099Z,17.49
2022-07-25T10:56:17.087Z,15.78
2022-07-25T10:59:29.645Z,15.48
2022-07-25T11:02:33.139Z,15.20
2022-07-25T11:05:44.716Z,16.41
2022-07-25T11:08:47.617Z,15.81
2022-07-25T11:11:52.774Z,17.10
2022-07-25T11:15:17.225Z,17.71
2022-07-25T11:18:31.187Z,18.01
2022-07-25T11:21:44.632Z,17.18
2022-07-25T11:24:47.794Z,17.92
2022-07-25T11:27:57.625Z,17.74
2022-07-25T11:31:04.866Z,17.37
2022-07-25T11:34:07.698Z,16.88
2022-07-25T11:37:11.948Z,17.38
2022-07-25T11:40:18.978Z,16.76
2022-07-25T11:43:22.727Z,17.27
2022-07-25T11:46:25.993Z,16.87
2022-07-25T11:49:28.941Z,18.00
2022-07-25T11:52:34.462Z,18.63
2022-07-25T11:55:40.337Z,18.93
2022-07-25T11:58:43.855Z,18.77
2022-07-25T12:01:47.656Z,20.60
2022-07-25T12:04:55.260Z,21.28
2022-07-25T12:07:57.746Z,21.58
2022-07-25T12:11:00.830Z,21.58
2022-07-25T12:14:05.085Z,23.97
2022-07-25T12:17:07.924Z,22.01
2022-07-25T12:20:15.745Z,22.92
2022-07-25T12:23:18.907Z,24.23
2022-07-25T12:26:21.455Z,23.72
2022-07-25T12:29:24.267Z,24.14
2022-07-25T12:32:26.764Z,23.96
2022-07-25T12:35:29.751Z,23.86
2022-07-25T12:38:32.314Z,24.02
2022-07-25T12:41:35.112Z,24.23
2022-07-25T12:44:37.645Z,24.54
2022-07-25T12:47:40.564Z,24.16
2022-07-25T12:50:44.124Z,24.10
2022-07-25T12:53:47.093Z,24.74
2022-07-25T12:56:50.552Z,25.01
2022-07-25T12:59:53.613Z,25.42
2022-07-25T13:02:56.387Z,25.15
2022-07-25T13:05:59.589Z,25.37
2022-07-25T13:09:02.192Z,26.11
2022-07-25T13:12:05.511Z,25.97
2022-07-25T13:15:09.181Z,25.52
2022-07-25T13:18:12.095Z,26.04
2022-07-25T13:21:14.699Z,26.20
2022-07-25T13:24:18.091Z,26.69
2022-07-25T13:27:22.018Z,26.70
2022-07-25T13:30:26.873Z,26.74
2022-07-25T13:33:29.395Z,26.74
2022-07-25T13:36:33.623Z,26.85
2022-07-25T13:39:38.570Z,26.68
2022-07-25T13:42:41.509Z,26.82
2022-07-25T13:45:44.538Z,26.95
2022-07-25T13:48:47.475Z,27.23
2022-07-25T13:51:50.029Z,27.63
2022-07-25T13:54:52.948Z,27.65
2022-07-25T13:57:55.987Z,27.85
2022-07-25T14:00:58.943Z,27.92
2022-07-25T14:04:01.832Z,28.26
2022-07-25T14:07:04.438Z,28.29
2022-07-25T14:10:08.579Z,28.48
2022-07-25T14:13:13.110Z,28.93
2022-07-25T14:16:17.526Z,28.64
2022-07-25T14:19:20.732Z,28.18
2022-07-25T14:22:23.514Z,28.42
2022-07-25T14:25:26.129Z,28.57
2022-07-25T14:28:29.806Z,28.61
2022-07-25T14:31:33.030Z,29.16
2022-07-25T14:34:36.048Z,29.54
2022-07-25T14:37:38.638Z,29.20
2022-07-25T14:40:41.681Z,29.48
2022-07-25T14:43:44.223Z,29.36
2022-07-25T14:46:49.160Z,29.47
2022-07-25T14:49:51.712Z,29.19
2022-07-25T14:52:54.725Z,28.96
2022-07-25T14:55:57.275Z,28.48
2022-07-25T14:59:00.368Z,28.71
2022-07-25T15:02:03.809Z,28.63
2022-07-25T15:05:07.081Z,28.81
2022-07-25T15:08:11.668Z,28.95
2022-07-25T15:11:14.511Z,29.21
2022-07-25T15:14:17.040Z,28.86
2022-07-25T15:17:19.803Z,28.91
2022-07-25T15:20:22.369Z,28.99
2022-07-25T15:23:26.308Z,28.92
2022-07-25T15:26:31.591Z,28.71
2022-07-25T15:29:34.517Z,28.72
2022-07-25T15:32:37.546Z,28.68
2022-07-25T15:35:40.728Z,28.48
2022-07-25T15:38:44.703Z,28.65
2022-07-25T15:41:47.696Z,28.51
2022-07-25T15:44:59.679Z,28.77
2022-07-25T15:48:13.721Z,28.96
2022-07-25T15:51:16.990Z,29.27
2022-07-25T15:54:19.840Z,29.21
2022-07-25T15:57:22.582Z,29.30
2022-07-25T16:00:29.635Z,29.25
2022-07-25T16:03:32.952Z,29.34
2022-07-25T16:06:35.565Z,29.70
2022-07-25T16:09:38.375Z,29.56
2022-07-25T16:12:40.962Z,29.67
2022-07-25T16:15:44.436Z,29.49
2022-07-25T16:18:46.995Z,29.47
2022-07-25T16:21:49.815Z,29.76
2022-07-25T16:24:52.638Z,29.70
2022-07-25T16:27:55.775Z,29.92
2022-07-25T16:30:58.331Z,29.96
2022-07-25T16:34:01.153Z,30.01
2022-07-25T16:37:04.092Z,30.26
2022-07-25T16:40:08.698Z,30.43
2022-07-25T16:43:11.413Z,30.44
2022-07-25T16:46:14.268Z,30.17
2022-07-25T16:49:17.031Z,30.50
2022-07-25T16:52:19.901Z,30.64
2022-07-25T16:55:22.949Z,30.85
2022-07-25T16:58:25.814Z,31.32
2022-07-25T17:01:28.386Z,31.40
2022-07-25T17:04:31.370Z,31.74
2022-07-25T17:07:33.931Z,32.36
2022-07-25T17:10:36.755Z,32.58
2022-07-25T17:13:39.273Z,32.98
2022-07-25T17:16:42.961Z,33.74
2022-07-25T17:19:45.577Z,33.76
2022-07-25T17:22:48.364Z,33.47
2022-07-25T17:25:51.357Z,33.74
2022-07-25T17:28:55.511Z,34.06
2022-07-25T17:31:58.161Z,34.27
2022-07-25T17:35:01.080Z,34.26
2022-07-25T17:38:03.635Z,34.48
2022-07-25T17:41:06.712Z,34.64
2022-07-25T17:44:11.996Z,35.02
2022-07-25T17:47:15.578Z,35.30
2022-07-25T17:50:18.893Z,35.49
2022-07-25T17:53:21.756Z,35.66
2022-07-25T17:56:24.252Z,35.71
2022-07-25T17:59:27.382Z,35.95
2022-07-25T18:02:29.938Z,36.27
2022-07-25T18:05:33.233Z,36.60
2022-07-25T18:08:35.912Z,36.88
2022-07-25T18:11:38.768Z,37.23
2022-07-25T18:14:41.315Z,37.47
2022-07-25T18:17:45.454Z,37.81
2022-07-25T18:20:48.003Z,38.30
2022-07-25T18:23:51.666Z,38.80
2022-07-25T18:26:54.208Z,38.89
2022-07-25T18:29:57.470Z,39.24
2022-07-25T18:32:59.998Z,39.44
2022-07-25T18:36:07.373Z,39.69
2022-07-25T18:39:10.519Z,40.23
2022-07-25T18:42:13.393Z,40.30
2022-07-25T18:45:16.132Z,40.65
2022-07-25T18:48:19.847Z,40.79
2022-07-25T18:51:22.356Z,41.13
2022-07-25T18:54:25.219Z,41.15
2022-07-25T18:57:29.965Z,41.46
2022-07-25T19:00:32.849Z,41.82
2022-07-25T19:03:36.225Z,41.85
2022-07-25T19:06:39.208Z,42.03
2022-07-25T19:09:41.733Z,42.23
2022-07-25T19:12:44.564Z,42.47
2022-07-25T19:15:47.179Z,42.73
2022-07-25T19:18:50.080Z,42.82
2022-07-25T19:21:53.038Z,42.81
2022-07-25T19:24:55.880Z,43.18
2022-07-25T19:27:58.457Z,43.50
2022-07-25T19:31:01.709Z,43.81
2022-07-25T19:34:05.518Z,43.65
2022-07-25T19:37:08.733Z,44.00
2022-07-25T19:40:11.672Z,44.35
2022-07-25T19:43:15.303Z,44.38
2022-07-25T19:46:18.189Z,44.37
2022-07-25T19:49:21.141Z,44.72
2022-07-25T19:52:23.716Z,44.78
2022-07-25T19:55:26.581Z,44.99
2022-07-25T19:58:29.260Z,45.21
2022-07-25T20:01:36.454Z,45.81
2022-07-25T20:04:39.281Z,45.40
2022-07-25T20:07:41.768Z,45.30
2022-07-25T20:10:44.785Z,45.59
2022-07-25T20:13:47.331Z,45.87
2022-07-25T20:16:51.051Z,46.02
2022-07-25T20:19:53.860Z,46.22
2022-07-25T20:22:56.724Z,46.36
2022-07-25T20:26:00.687Z,46.54
2022-07-25T20:29:03.761Z,46.62
2022-07-25T20:32:06.909Z,46.74
2022-07-25T20:35:09.755Z,46.74
2022-07-25T20:38:12.277Z,46.65
2022-07-25T20:41:16.673Z,46.59
2022-07-25T20:44:20.180Z,46.83
2022-07-25T20:47:23.177Z,46.99
2022-07-25T20:50:25.751Z,47.04
2022-07-25T20:53:28.605Z,47.19
2022-07-25T20:56:31.140Z,47.10
2022-07-25T20:59:33.963Z,47.55
2022-07-25T21:02:36.645Z,47.61
2022-07-25T21:05:40.443Z,47.62
2022-07-25T21:08:42.965Z,47.47
2022-07-25T21:11:45.812Z,47.80
2022-07-25T21:14:48.463Z,47.96
2022-07-25T21:17:51.321Z,47.77
2022-07-25T21:20:53.982Z,47.92
2022-07-25T21:23:56.795Z,47.84
2022-07-25T21:26:59.357Z,47.92
2022-07-25T21:30:04.699Z,47.96
2022-07-25T21:33:14.381Z,48.05
2022-07-25T21:36:17.696Z,47.92
2022-07-25T21:39:20.222Z,48.06
2022-07-25T21:42:23.101Z,48.23
2022-07-25T21:45:25.966Z,48.17
2022-07-25T21:48:47.776Z,48.17
2022-07-25T21:51:50.406Z,48.22
2022-07-25T21:54:54.378Z,48.31
2022-07-25T21:57:58.828Z,48.31
2022-07-25T22:01:01.729Z,48.38
2022-07-25T22:04:05.118Z,48.60
2022-07-25T22:07:07.843Z,48.61
2022-07-25T22:10:12.326Z,48.51
2022-07-25T22:13:14.917Z,48.63
2022-07-25T22:16:17.911Z,48.71
2022-07-25T22:19:22.492Z,48.75
2022-07-25T22:22:25.494Z,48.79
2022-07-25T22:25:28.209Z,49.05
2022-07-25T22:28:31.237Z,49.09
2022-07-25T22:31:34.444Z,49.20
2022-07-25T22:34:37.398Z,49.43
2022-07-25T22:37:39.928Z,49.76
2022-07-25T22:40:42.784Z,49.87
2022-07-25T22:43:58.394Z,50.00
2022-07-25T22:47:02.330Z,50.29
2022-07-25T22:50:06.061Z,50.28
2022-07-25T22:53:08.838Z,50.54
2022-07-25T22:56:11.421Z,50.83
2022-07-25T22:59:16.114Z,50.87
2022-07-25T23:02:18.637Z,51.10
2022-07-25T23:05:21.506Z,51.32
2022-07-25T23:08:24.059Z,51.34
2022-07-25T23:11:27.294Z,51.39
2022-07-25T23:14:29.815Z,51.54
2022-07-25T23:17:32.569Z,51.62
2022-07-25T23:20:35.083Z,51.60
2022-07-25T23:23:37.917Z,51.58
2022-07-25T23:26:40.449Z,51.46
2022-07-25T23:29:43.217Z,51.35
2022-07-25T23:32:45.746Z,51.31
2022-07-25T23:35:48.698Z,51.25
2022-07-25T23:38:51.218Z,51.31
2022-07-25T23:41:54.476Z,51.29
2022-07-25T23:44:57.093Z,51.42
2022-07-25T23:48:04.224Z,51.49
2022-07-25T23:51:08.030Z,51.58
2022-07-25T23:54:11.654Z,51.69
2022-07-25T23:57:14.256Z,51.91
